Time;durP1;ratioP1;P1;durP2;ratioP2;P2;SDS_P1;SDS_P2;PMS_P1;PMS_P2;Temp;Humidity;BMP_temperature;BMP_pressure;BME280_temperature;BME280_humidity;BME280_pressure;Samples;Min_cycle;Max_cycle;Signal;HPM_P1;HPM_P2
2023/10/28 00:02:01;;;;;;;6.80;4.23;;;;;;;16.52;76.54;95998.94;4989276;28;20192;-69
2023/10/28 00:04:28;;;;;;;8.13;4.23;;;;;;;16.55;76.33;96005.69;4971704;28;20205;-70
2023/10/28 00:06:55;;;;;;;8.40;4.43;;;;;;;16.63;75.66;95988.38;4970875;28;20203;-68
2023/10/28 00:09:22;;;;;;;7.97;4.57;;;;;;;16.69;75.72;96016.59;4989123;28;20193;-68
2023/10/28 00:11:50;;;;;;;9.27;4.40;;;;;;;16.90;74.94;96016.50;4988442;28;21131;-68
2023/10/28 00:14:19;;;;;;;6.13;4.10;;;;;;;16.72;75.57;95992.81;4989349;28;20286;-70
2023/10/28 00:16:48;;;;;;;8.47;4.03;;;;;;;16.92;75.02;96014.59;4988333;28;20194;-68
2023/10/28 00:19:16;;;;;;;7.43;4.33;;;;;;;16.99;74.96;96024.41;4955067;28;20323;-68
2023/10/28 00:21:43;;;;;;;10.87;4.97;;;;;;;17.11;74.47;96009.41;4970395;28;20554;-66
2023/10/28 00:24:11;;;;;;;10.63;4.60;;;;;;;17.19;74.16;96020.03;4970350;28;20656;-68
2023/10/28 00:26:38;;;;;;;5.77;3.87;;;;;;;17.35;73.37;96022.94;4988823;28;20275;-68
2023/10/28 00:29:07;;;;;;;5.70;4.43;;;;;;;17.26;73.76;96022.94;4970767;28;20193;-67
2023/10/28 00:31:34;;;;;;;7.27;4.77;;;;;;;17.14;73.97;96003.94;4971898;28;20193;-68
2023/10/28 00:34:01;;;;;;;12.30;4.80;;;;;;;17.24;74.03;96019.63;4970941;28;20197;-67
2023/10/28 00:36:28;;;;;;;9.63;5.67;;;;;;;17.22;74.33;96021.56;4955546;28;20189;-66
2023/10/28 00:38:55;;;;;;;9.43;5.73;;;;;;;17.15;74.87;96026.50;4988446;28;20220;-67
2023/10/28 00:41:25;;;;;;;7.37;5.03;;;;;;;17.03;75.35;96023.19;4988572;28;20197;-67
2023/10/28 00:43:54;;;;;;;12.10;5.70;;;;;;;16.96;75.30;96022.03;4988426;28;20204;-67
2023/10/28 00:46:22;;;;;;;12.53;5.27;;;;;;;16.90;75.50;96022.59;4970239;28;20729;-68
2023/10/28 00:48:49;;;;;;;7.37;5.17;;;;;;;16.36;78.19;96010.78;4971188;28;20660;-67
2023/10/28 00:51:19;;;;;;;11.10;5.20;;;;;;;16.08;79.59;96031.41;4954667;28;20223;-68
2023/10/28 00:53:47;;;;;;;10.37;5.53;;;;;;;16.09;79.72;96019.97;4988297;28;20223;-67
2023/10/28 00:56:14;;;;;;;9.77;5.00;;;;;;;16.13;79.46;96005.72;4970520;28;20224;-67
2023/10/28 00:58:42;;;;;;;9.47;5.20;;;;;;;16.06;79.43;96012.41;4987923;28;20220;-66
2023/10/28 01:01:13;;;;;;;8.03;4.73;;;;;;;16.10;79.86;96036.47;4988017;28;20240;-67
2023/10/28 01:03:41;;;;;;;10.73;5.37;;;;;;;15.92;80.06;96043.25;4970096;28;20195;-66
2023/10/28 01:06:09;;;;;;;10.93;4.60;;;;;;;15.72;81.08;96031.00;4988252;28;20286;-67
2023/10/28 01:08:37;;;;;;;10.07;4.30;;;;;;;15.62;81.41;96038.75;4969824;28;20235;-67
2023/10/28 01:11:05;;;;;;;9.27;4.53;;;;;;;15.63;81.17;96037.81;4970369;28;20198;-67
2023/10/28 01:13:32;;;;;;;14.03;4.63;;;;;;;15.64;80.90;96033.41;4970001;28;20194;-68
2023/10/28 01:16:00;;;;;;;10.23;4.27;;;;;;;15.92;80.13;96036.25;4987412;28;20758;-68
2023/10/28 01:18:30;;;;;;;6.73;4.23;;;;;;;16.18;78.82;96040.13;4987687;28;20240;-67
2023/10/28 01:20:57;;;;;;;10.63;4.90;;;;;;;16.08;78.66;96020.13;4987847;28;20198;-69
2023/10/28 01:23:25;;;;;;;9.13;4.47;;;;;;;16.28;78.13;96032.31;4954421;28;20203;-69
2023/10/28 01:25:52;;;;;;;7.60;5.53;;;;;;;16.31;78.10;96039.91;4969705;28;20688;-67
2023/10/28 01:28:19;;;;;;;12.03;5.30;;;;;;;16.06;77.87;95983.69;4954105;28;20213;-67
2023/10/28 01:30:48;;;;;;;10.83;4.43;;;;;;;16.53;77.30;96042.38;4987367;28;20223;-67
2023/10/28 01:33:15;;;;;;;8.23;4.73;;;;;;;16.51;77.39;96028.63;4969937;28;20633;-67
2023/10/28 01:35:42;;;;;;;11.50;4.83;;;;;;;16.56;77.48;96038.69;4969716;28;20192;-67
2023/10/28 01:38:13;;;;;;;6.20;4.30;;;;;;;16.79;76.89;96035.78;4987081;28;20226;-69
2023/10/28 01:40:40;;;;;;;11.43;4.47;;;;;;;16.75;76.51;96026.53;4970272;28;20688;-69
2023/10/28 01:43:07;;;;;;;7.63;4.50;;;;;;;16.39;77.30;96015.75;4986915;28;20184;-70
2023/10/28 01:45:35;;;;;;;7.83;4.37;;;;;;;16.41;78.21;96045.19;4987640;28;20210;-69
2023/10/28 01:48:03;;;;;;;11.23;4.57;;;;;;;16.43;78.08;96040.66;4986945;28;20188;-69
2023/10/28 01:50:30;;;;;;;7.23;4.13;;;;;;;16.45;78.10;96036.13;4970034;28;21017;-68
2023/10/28 01:52:57;;;;;;;10.07;5.57;;;;;;;16.50;77.57;96041.84;4969621;28;20246;-69
2023/10/28 01:55:25;;;;;;;8.77;4.60;;;;;;;16.47;77.95;96047.28;4986745;28;20224;-69
2023/10/28 01:57:52;;;;;;;10.47;4.23;;;;;;;16.38;77.94;96042.84;4969860;28;20268;-69
2023/10/28 02:00:20;;;;;;;7.13;4.73;;;;;;;16.33;78.54;96058.06;4969219;28;20188;-70
2023/10/28 02:02:49;;;;;;;9.13;5.23;;;;;;;16.23;78.77;96047.56;4969951;28;20205;-69
2023/10/28 02:05:18;;;;;;;8.27;4.63;;;;;;;16.38;78.66;96061.97;4986696;28;20254;-69
2023/10/28 02:07:46;;;;;;;7.73;4.67;;;;;;;16.36;78.54;96056.06;4987093;28;20187;-67
2023/10/28 02:10:13;;;;;;;11.97;4.73;;;;;;;16.34;78.36;96059.75;4969663;28;20621;-67
2023/10/28 02:12:40;;;;;;;9.00;4.50;;;;;;;16.27;78.59;96055.03;4953409;28;20192;-68
2023/10/28 02:15:09;;;;;;;6.77;4.27;;;;;;;16.19;79.22;96070.53;4987161;28;20206;-68
2023/10/28 02:17:38;;;;;;;7.83;4.17;;;;;;;16.28;79.03;96064.50;4985059;28;20209;-68
2023/10/28 02:20:28;;;;;;;6.57;5.07;;;;;;;15.96;79.82;96068.97;4959317;28;20607;-69
2023/10/28 02:22:55;;;;;;;11.37;4.93;;;;;;;15.91;80.07;96068.53;4969266;28;20199;-69
2023/10/28 02:25:23;;;;;;;9.17;5.23;;;;;;;15.85;80.41;96063.81;4952965;28;20689;-69
2023/10/28 02:27:59;;;;;;;6.73;4.43;;;;;;;15.68;81.82;96073.97;4986884;28;20570;-68
2023/10/28 02:30:26;;;;;;;11.97;4.63;;;;;;;15.67;81.52;96067.94;4986471;28;20192;-69
2023/10/28 02:32:56;;;;;;;6.87;4.73;;;;;;;15.83;81.58;96089.22;4987412;28;20254;-67
2023/10/28 02:35:26;;;;;;;8.13;5.63;;;;;;;15.86;80.64;96067.25;4986301;28;20214;-68
2023/10/28 02:37:53;;;;;;;11.93;5.67;;;;;;;16.12;80.36;96086.81;4969633;28;20654;-67
2023/10/28 02:40:21;;;;;;;6.33;4.70;;;;;;;15.98;80.36;96074.91;4986564;28;20232;-68
2023/10/28 02:42:48;;;;;;;11.53;5.40;;;;;;;15.98;80.18;96064.47;4952935;28;20294;-69
2023/10/28 02:45:15;;;;;;;8.30;4.97;;;;;;;16.05;80.01;96083.06;4986927;28;20244;-68
2023/10/28 02:47:42;;;;;;;9.60;5.53;;;;;;;16.19;78.90;96088.81;4956341;28;20607;-68
2023/10/28 02:50:10;;;;;;;12.93;4.70;;;;;;;15.78;80.43;96096.59;4990784;28;20187;-68
2023/10/28 02:52:37;;;;;;;10.30;5.77;;;;;;;15.83;80.50;96091.81;4972445;28;20191;-67
2023/10/28 02:55:05;;;;;;;13.40;5.70;;;;;;;15.86;79.85;96083.75;4972764;28;20205;-68
2023/10/28 02:57:34;;;;;;;8.73;5.20;;;;;;;15.83;80.09;96110.09;4972365;28;20247;-69
2023/10/28 03:00:04;;;;;;;8.77;4.80;;;;;;;15.68;80.89;96094.88;4989894;28;20220;-67
2023/10/28 03:02:31;;;;;;;11.77;4.87;;;;;;;15.76;79.95;96105.50;4988389;28;20195;-67
2023/10/28 03:05:00;;;;;;;9.73;5.43;;;;;;;15.43;81.29;96099.41;4955474;28;20200;-68
2023/10/28 03:07:30;;;;;;;10.53;5.13;;;;;;;15.51;81.40;96124.94;4973144;28;20945;-68
2023/10/28 03:09:58;;;;;;;10.27;5.00;;;;;;;15.55;80.90;96102.84;4989741;28;20632;-69
2023/10/28 03:12:26;;;;;;;15.53;5.10;;;;;;;15.71;80.59;96113.72;4972837;28;20555;-66
2023/10/28 03:14:55;;;;;;;8.70;5.20;;;;;;;15.66;80.46;96105.41;4988481;28;20192;-68
2023/10/28 03:17:25;;;;;;;10.20;5.63;;;;;;;15.57;80.71;96103.56;4989836;28;20251;-68
2023/10/28 03:19:52;;;;;;;8.93;5.40;;;;;;;15.53;80.23;96101.31;4972333;28;20217;-68
2023/10/28 03:22:19;;;;;;;10.53;5.23;;;;;;;15.49;80.71;96124.22;4971371;28;20712;-68
2023/10/28 03:24:47;;;;;;;10.43;5.13;;;;;;;15.06;82.43;96103.28;4953305;28;20201;-69
2023/10/28 03:27:14;;;;;;;10.63;4.97;;;;;;;15.14;82.24;96100.06;4970129;28;20205;-67
2023/10/28 03:29:42;;;;;;;14.00;5.80;;;;;;;15.16;82.61;96103.38;4971150;28;20197;-69
2023/10/28 03:32:13;;;;;;;10.17;5.33;;;;;;;15.26;81.85;96097.31;4972136;28;20200;-79
2023/10/28 03:34:40;;;;;;;9.90;5.47;;;;;;;15.40;81.30;96098.81;4989833;28;20192;-69
2023/10/28 03:37:07;;;;;;;12.87;5.60;;;;;;;15.43;80.62;96090.78;4955643;28;20687;-68
2023/10/28 03:39:38;;;;;;;7.20;5.10;;;;;;;15.45;81.22;96117.59;4953580;28;20228;-67
2023/10/28 03:42:08;;;;;;;8.33;4.97;;;;;;;15.58;80.43;96107.81;4989753;28;20571;-69
2023/10/28 03:44:36;;;;;;;8.43;4.40;;;;;;;15.41;80.23;96080.41;4988031;28;20237;-68
2023/10/28 03:47:04;;;;;;;8.67;6.13;;;;;;;15.55;80.28;96108.06;4989699;28;20188;-71
2023/10/28 03:49:33;;;;;;;11.87;5.07;;;;;;;15.33;80.70;96103.69;4971584;28;20176;-69
2023/10/28 03:52:00;;;;;;;11.13;5.30;;;;;;;15.03;81.53;96097.44;4971943;28;20191;-68
2023/10/28 03:54:33;;;;;;;9.30;5.20;;;;;;;14.87;83.11;96120.44;4988980;28;20691;-68
2023/10/28 03:57:10;;;;;;;8.93;5.63;;;;;;;14.82;84.01;96115.59;4988675;28;20228;-71
2023/10/28 03:59:38;;;;;;;10.80;6.10;;;;;;;15.09;83.12;96110.00;4972253;28;20274;-72
2023/10/28 04:02:28;;;;;;;10.83;5.83;;;;;;;15.22;82.27;96103.72;4987971;28;20200;-69
2023/10/28 04:04:56;;;;;;;12.77;5.20;;;;;;;15.18;81.96;96119.72;4981041;28;20204;-68
2023/10/28 04:07:23;;;;;;;7.43;4.73;;;;;;;15.22;81.96;96105.50;4966474;28;20204;-68
2023/10/28 04:09:51;;;;;;;9.23;5.07;;;;;;;15.17;82.07;96112.84;4969427;28;20192;-68
2023/10/28 04:12:18;;;;;;;9.53;5.40;;;;;;;15.38;81.07;96124.19;4969616;28;20192;-70
2023/10/28 04:14:47;;;;;;;13.10;5.73;;;;;;;15.33;81.13;96118.53;4951752;28;20276;-69
2023/10/28 04:17:16;;;;;;;14.07;5.40;;;;;;;15.25;80.62;96124.34;4969534;28;20256;-69
2023/10/28 04:19:44;;;;;;;11.90;4.73;;;;;;;15.14;81.26;96149.59;4968805;28;20657;-69
2023/10/28 04:22:12;;;;;;;11.27;5.97;;;;;;;14.92;81.67;96141.81;4969237;28;20200;-72
2023/10/28 04:24:40;;;;;;;13.43;5.47;;;;;;;14.87;82.24;96149.13;4968935;28;20692;-70
2023/10/28 04:27:08;;;;;;;8.83;4.77;;;;;;;14.85;82.09;96164.06;4951654;28;20212;-71
2023/10/28 04:29:35;;;;;;;10.93;5.07;;;;;;;14.52;82.95;96137.03;4969034;28;20836;-70
2023/10/28 04:32:04;;;;;;;10.27;5.17;;;;;;;14.66;82.85;96188.91;4951062;28;20203;-72
2023/10/28 04:34:31;;;;;;;13.17;4.90;;;;;;;14.44;83.43;96148.97;4936061;28;20710;-70
2023/10/28 04:37:18;;;;;;;11.00;5.17;;;;;;;14.44;83.30;96135.94;4968628;28;20189;-70
2023/10/28 04:39:47;;;;;;;10.70;5.30;;;;;;;14.49;82.36;96147.66;4951292;28;20230;-72
2023/10/28 04:42:14;;;;;;;8.17;4.73;;;;;;;14.42;82.44;96132.63;4968768;28;20716;-71
2023/10/28 04:44:43;;;;;;;11.63;5.00;;;;;;;14.63;81.85;96150.06;4951082;28;20205;-69
2023/10/28 04:47:13;;;;;;;11.03;4.97;;;;;;;14.50;82.05;96154.56;4935498;28;20199;-71
2023/10/28 04:49:41;;;;;;;7.83;5.00;;;;;;;14.51;82.43;96186.63;4968294;28;20215;-69
2023/10/28 04:52:09;;;;;;;9.30;5.67;;;;;;;14.37;83.09;96168.59;4968912;28;20613;-69
2023/10/28 04:54:38;;;;;;;12.23;5.80;;;;;;;14.22;83.65;96164.50;4934195;28;20198;-72
2023/10/28 04:57:27;;;;;;;12.33;6.37;;;;;;;14.24;84.20;96186.88;4931653;29;20230;-68
2023/10/28 04:59:56;;;;;;;10.57;5.63;;;;;;;14.25;84.39;96188.53;4949299;29;20225;-71
2023/10/28 05:02:23;;;;;;;11.63;5.33;;;;;;;14.32;84.40;96196.78;4949146;28;20204;-71
2023/10/28 05:04:50;;;;;;;8.03;5.13;;;;;;;14.30;83.69;96178.63;4932227;29;20205;-69
2023/10/28 05:07:20;;;;;;;9.13;5.97;;;;;;;14.49;83.62;96202.38;4948754;28;20189;-71
2023/10/28 05:09:48;;;;;;;10.07;6.33;;;;;;;14.55;83.77;96208.88;4948855;28;20202;-70
2023/10/28 05:12:15;;;;;;;9.87;5.57;;;;;;;14.58;83.55;96211.28;4949133;28;20194;-73
2023/10/28 05:14:43;;;;;;;12.30;6.77;;;;;;;14.58;83.10;96217.34;4948759;28;20283;-70
2023/10/28 05:17:15;;;;;;;8.23;5.47;;;;;;;14.69;82.80;96216.53;4947215;29;20296;-69
2023/10/28 05:19:43;;;;;;;8.70;5.90;;;;;;;14.95;82.24;96238.84;4947306;29;20235;-70
2023/10/28 05:22:10;;;;;;;9.70;5.23;;;;;;;15.28;80.94;96238.88;4947678;29;20627;-70
2023/10/28 05:24:37;;;;;;;13.77;7.00;;;;;;;15.43;80.04;96244.72;4946972;29;20561;-69
2023/10/28 05:27:05;;;;;;;13.13;7.50;;;;;;;15.42;79.68;96245.63;4948856;28;20190;-74
2023/10/28 05:29:32;;;;;;;12.13;6.57;;;;;;;15.41;79.50;96230.94;4946727;29;20192;-70
2023/10/28 05:31:59;;;;;;;12.30;7.03;;;;;;;15.34;79.41;96230.59;4948732;28;20193;-70
2023/10/28 05:34:26;;;;;;;14.27;6.47;;;;;;;15.51;79.02;96246.75;4915446;29;20732;-71
2023/10/28 05:36:55;;;;;;;12.53;6.77;;;;;;;15.69;78.61;96261.78;4947011;29;20202;-72
2023/10/28 05:39:22;;;;;;;18.60;7.40;;;;;;;15.30;80.07;96244.81;4931079;29;20248;-69
2023/10/28 05:41:52;;;;;;;11.90;6.77;;;;;;;15.29;79.54;96243.13;4948192;28;20593;-71
2023/10/28 05:44:19;;;;;;;13.87;6.47;;;;;;;15.62;79.43;96265.81;4948871;28;20679;-69
2023/10/28 05:46:50;;;;;;;10.13;6.27;;;;;;;15.99;78.10;96280.25;4948114;28;20284;-75
2023/10/28 05:49:18;;;;;;;15.80;6.80;;;;;;;15.83;77.71;96266.75;4948790;28;20190;-72
2023/10/28 05:51:46;;;;;;;14.67;6.53;;;;;;;15.80;77.92;96280.06;4930895;29;20736;-70
2023/10/28 05:54:16;;;;;;;10.53;5.93;;;;;;;15.64;78.05;96265.72;4946974;29;20197;-70
2023/10/28 05:56:47;;;;;;;10.67;6.73;;;;;;;15.61;78.51;96281.59;4962803;28;20710;-73
2023/10/28 05:59:15;;;;;;;14.50;7.47;;;;;;;15.62;79.05;96273.66;4966866;28;20216;-70
2023/10/28 06:01:43;;;;;;;14.93;7.33;;;;;;;15.68;78.72;96294.09;4950471;28;20199;-73
2023/10/28 06:04:11;;;;;;;12.03;5.77;;;;;;;15.74;78.32;96296.22;4918049;28;20246;-69
2023/10/28 06:06:39;;;;;;;8.90;5.90;;;;;;;15.79;78.05;96308.88;4933987;28;20235;-70
2023/10/28 06:09:10;;;;;;;14.17;7.07;;;;;;;15.28;79.73;96280.63;4949435;28;20196;-74
2023/10/28 06:11:44;;;;;;;11.40;6.20;;;;;;;15.15;80.85;96292.94;4934869;28;20777;-70
2023/10/28 06:14:12;;;;;;;11.57;6.60;;;;;;;15.35;80.79;96302.66;4967265;28;20181;-73
2023/10/28 06:16:43;;;;;;;13.23;6.83;;;;;;;15.54;80.30;96296.91;4966558;28;20268;-70
2023/10/28 06:19:13;;;;;;;14.67;8.17;;;;;;;15.46;78.87;96254.91;4933853;28;20676;-70
2023/10/28 06:21:45;;;;;;;12.70;8.60;;;;;;;15.91;78.15;96316.59;4937387;28;20275;-70
2023/10/28 06:24:12;;;;;;;19.30;10.07;;;;;;;15.90;78.22;96317.56;4971035;28;20204;-71
2023/10/28 06:26:40;;;;;;;13.53;7.07;;;;;;;15.83;78.14;96312.91;4953660;28;20225;-74
2023/10/28 06:29:08;;;;;;;17.07;7.93;;;;;;;15.63;79.12;96309.25;4953134;28;20194;-71
2023/10/28 06:31:38;;;;;;;9.10;5.67;;;;;;;15.64;80.08;96330.97;4953067;28;20207;-72
2023/10/28 06:34:06;;;;;;;13.07;6.00;;;;;;;15.43;80.74;96328.22;4970528;28;20431;-73
2023/10/28 06:36:34;;;;;;;17.37;6.30;;;;;;;15.55;81.00;96350.78;4953891;28;20198;-74
2023/10/28 06:39:10;;;;;;;11.97;6.77;;;;;;;15.36;81.71;96314.78;4937604;28;20220;-70
2023/10/28 06:41:39;;;;;;;11.00;6.37;;;;;;;15.32;81.61;96313.34;4952962;28;20438;-70
2023/10/28 06:44:08;;;;;;;9.90;5.53;;;;;;;15.03;82.24;96290.41;4970665;28;20196;-71
2023/10/28 06:46:39;;;;;;;10.90;5.80;;;;;;;15.35;82.63;96328.75;4952641;28;20236;-74
2023/10/28 06:49:08;;;;;;;11.30;7.07;;;;;;;15.50;82.21;96329.41;4952930;28;20292;-69
2023/10/28 06:51:36;;;;;;;11.53;6.53;;;;;;;15.42;82.42;96337.81;4969923;28;20205;-71
2023/10/28 06:54:06;;;;;;;12.97;6.13;;;;;;;15.54;82.13;96362.16;4953036;28;20212;-69
2023/10/28 06:56:35;;;;;;;8.90;5.47;;;;;;;15.64;81.86;96338.81;4932006;29;20628;-71
2023/10/28 06:59:07;;;;;;;9.03;6.40;;;;;;;15.73;81.21;96331.09;4948021;29;20271;-72
2023/10/28 07:01:34;;;;;;;10.50;6.77;;;;;;;15.89;80.47;96339.38;4932228;29;20231;-72
2023/10/28 07:04:01;;;;;;;14.90;7.10;;;;;;;16.14;79.99;96362.63;4932196;29;20207;-69
2023/10/28 07:06:31;;;;;;;17.53;6.93;;;;;;;16.30;79.90;96365.69;4949133;28;20261;-69
2023/10/28 07:08:58;;;;;;;11.43;7.37;;;;;;;16.51;78.73;96365.81;4947688;29;20197;-72
2023/10/28 07:11:25;;;;;;;14.47;6.50;;;;;;;16.65;78.63;96369.94;4949732;29;20221;-72
2023/10/28 07:13:53;;;;;;;11.47;6.57;;;;;;;16.55;78.27;96350.72;4948799;29;20205;-70
2023/10/28 07:16:30;;;;;;;14.50;6.53;;;;;;;16.92;77.65;96380.78;4919149;29;20213;-70
2023/10/28 07:19:12;;;;;;;16.30;7.10;;;;;;;17.06;77.01;96385.72;4947064;28;20209;-75
2023/10/28 07:21:42;;;;;;;14.33;6.27;;;;;;;17.26;75.95;96377.06;4949182;28;20585;-71
2023/10/28 07:24:11;;;;;;;13.80;6.53;;;;;;;17.23;76.79;96400.84;4949136;28;20207;-71
2023/10/28 07:26:42;;;;;;;12.70;6.90;;;;;;;17.20;77.05;96385.44;4947329;29;20213;-71
2023/10/28 07:29:09;;;;;;;12.43;6.80;;;;;;;17.10;76.28;96358.38;4948130;29;20210;-70
2023/10/28 07:31:38;;;;;;;12.53;6.77;;;;;;;17.37;74.64;96378.78;4946586;28;20197;-71
2023/10/28 07:34:08;;;;;;;14.93;7.77;;;;;;;17.47;74.11;96387.53;4947855;29;20265;-76
2023/10/28 07:36:35;;;;;;;12.10;6.60;;;;;;;17.73;74.03;96405.38;4948711;28;20187;-69
2023/10/28 07:39:04;;;;;;;14.37;7.63;;;;;;;17.85;73.85;96409.56;4931404;29;20277;-75
2023/10/28 07:41:33;;;;;;;18.23;8.93;;;;;;;18.04;72.65;96384.41;4916350;29;20226;-72
2023/10/28 07:44:03;;;;;;;16.50;9.60;;;;;;;18.31;71.95;96395.16;4947405;29;20282;-73
2023/10/28 07:46:35;;;;;;;15.17;7.67;;;;;;;18.26;71.78;96397.38;4948398;29;20186;-72
2023/10/28 07:49:03;;;;;;;17.23;8.47;;;;;;;18.50;71.48;96418.84;4948251;28;20681;-72
2023/10/28 07:51:31;;;;;;;17.00;7.97;;;;;;;18.42;70.95;96402.94;4947654;29;20287;-72
2023/10/28 07:54:06;;;;;;;15.37;7.07;;;;;;;18.34;72.35;96405.38;4948082;29;20298;-74
2023/10/28 07:56:37;;;;;;;14.10;7.30;;;;;;;18.23;72.23;96408.94;4878749;29;1591993;-75
2023/10/28 07:59:04;;;;;;;11.83;5.67;;;;;;;18.11;72.77;96404.75;4948406;29;20204;-75
2023/10/28 08:01:31;;;;;;;11.63;5.20;;;;;;;18.14;73.13;96406.25;4949374;28;20322;-72
2023/10/28 08:04:07;;;;;;;10.93;5.60;;;;;;;18.35;72.59;96417.53;4947994;29;20207;-72
2023/10/28 08:06:34;;;;;;;13.83;6.80;;;;;;;18.28;72.68;96380.50;4947010;29;20203;-70
2023/10/28 08:09:08;;;;;;;8.23;5.53;;;;;;;18.67;72.31;96407.69;4948366;29;20240;-72
2023/10/28 08:11:36;;;;;;;12.23;4.93;;;;;;;18.45;71.80;96365.97;4947472;29;20197;-70
2023/10/28 08:14:03;;;;;;;10.33;5.73;;;;;;;18.95;71.46;96403.47;4947844;29;20191;-71
2023/10/28 08:16:32;;;;;;;13.73;5.57;;;;;;;18.94;71.20;96414.94;4946494;29;20206;-74
2023/10/28 08:19:03;;;;;;;14.20;7.27;;;;;;;18.83;71.42;96397.53;4931655;29;20704;-75
2023/10/28 08:21:34;;;;;;;12.30;4.50;;;;;;;19.00;70.32;96409.16;4947357;29;20246;-75
2023/10/28 08:24:08;;;;;;;9.67;5.33;;;;;;;19.05;71.01;96413.03;4948483;29;20209;-70
2023/10/28 08:26:40;;;;;;;9.53;4.97;;;;;;;19.21;70.17;96402.78;4948902;28;20196;-71
2023/10/28 08:29:07;;;;;;;13.20;4.97;;;;;;;19.22;69.14;96393.97;4947358;29;20639;-71
2023/10/28 08:31:36;;;;;;;6.20;4.30;;;;;;;19.39;69.38;96411.66;4948779;28;20283;-68
2023/10/28 08:34:06;;;;;;;7.20;4.90;;;;;;;19.55;68.50;96415.53;4948787;28;20200;-70
2023/10/28 08:36:34;;;;;;;16.97;5.73;;;;;;;19.66;68.12;96418.00;4947349;29;20279;-69
2023/10/28 08:39:05;;;;;;;13.13;6.10;;;;;;;19.68;68.21;96414.25;4946902;29;20554;-75
2023/10/28 08:41:37;;;;;;;11.37;6.23;;;;;;;19.67;68.11;96415.25;4946891;29;20694;-73
2023/10/28 08:44:07;;;;;;;15.23;6.87;;;;;;;19.87;66.75;96416.84;4946425;28;20212;-70
2023/10/28 08:46:37;;;;;;;9.27;6.30;;;;;;;19.90;66.77;96389.47;4946912;29;20272;-73
2023/10/28 08:49:11;;;;;;;9.40;5.47;;;;;;;20.01;66.25;96412.94;4948383;28;20196;-71
2023/10/28 08:51:47;;;;;;;14.00;5.50;;;;;;;20.27;65.50;96424.50;4931376;29;20223;-71
2023/10/28 08:54:16;;;;;;;12.83;7.07;;;;;;;20.25;65.22;96405.41;4930308;29;20568;-70
2023/10/28 08:56:46;;;;;;;18.03;6.53;;;;;;;20.40;65.32;96411.88;4947240;28;20734;-70
2023/10/28 08:59:17;;;;;;;12.23;5.50;;;;;;;20.39;65.03;96412.81;4948000;28;20207;-69
2023/10/28 09:01:46;;;;;;;12.13;6.83;;;;;;;20.60;64.10;96410.78;4947856;29;20313;-69
2023/10/28 09:04:15;;;;;;;11.33;5.20;;;;;;;20.59;63.61;96413.53;4948590;29;20557;-70
2023/10/28 09:06:44;;;;;;;8.33;4.87;;;;;;;20.51;63.39;96427.44;4949746;28;20201;-70
2023/10/28 09:09:15;;;;;;;10.17;4.47;;;;;;;20.54;63.14;96406.13;4948583;28;20203;-70
2023/10/28 09:11:49;;;;;;;16.57;6.43;;;;;;;20.65;63.26;96403.28;4946928;29;20206;-72
2023/10/28 09:14:16;;;;;;;11.30;4.90;;;;;;;21.02;62.54;96426.88;4948502;29;20649;-69
2023/10/28 09:16:44;;;;;;;10.23;4.27;;;;;;;20.82;62.52;96412.16;4948121;28;20226;-74
2023/10/28 09:19:22;;;;;;;11.77;5.40;;;;;;;20.83;61.53;96412.06;4946799;29;20579;-72
2023/10/28 09:21:50;;;;;;;7.00;5.00;;;;;;;21.08;60.10;96413.16;4946424;29;20227;-72
2023/10/28 09:24:19;;;;;;;13.63;5.77;;;;;;;20.98;60.17;96400.00;4946212;29;20273;-70
2023/10/28 09:26:46;;;;;;;18.13;9.40;;;;;;;21.15;60.04;96405.47;4948061;28;20579;-71
2023/10/28 09:29:30;;;;;;;23.83;10.57;;;;;;;21.30;60.25;96402.16;4931721;29;20199;-77
2023/10/28 09:32:08;;;;;;;13.43;8.40;;;;;;;21.46;60.38;96406.72;4947625;29;20296;-72
2023/10/28 09:34:38;;;;;;;18.90;6.73;;;;;;;21.42;59.48;96386.94;4945731;29;20206;-72
2023/10/28 09:37:07;;;;;;;10.93;5.37;;;;;;;21.58;59.82;96398.44;4946708;29;20202;-70
2023/10/28 09:39:37;;;;;;;16.47;6.17;;;;;;;21.62;59.78;96402.41;4946401;29;20210;-72
2023/10/28 09:42:06;;;;;;;12.50;5.53;;;;;;;21.74;59.59;96401.19;4947729;28;20226;-70
2023/10/28 09:44:37;;;;;;;13.80;6.00;;;;;;;22.02;58.81;96396.63;4946976;29;20196;-73
2023/10/28 09:47:05;;;;;;;16.87;6.77;;;;;;;22.08;58.13;96396.00;4945685;29;20195;-76
2023/10/28 09:49:39;;;;;;;15.53;6.60;;;;;;;22.22;57.31;96389.31;4948373;28;20556;-72
2023/10/28 09:52:12;;;;;;;12.43;5.17;;;;;;;22.17;56.70;96376.63;4947705;28;20187;-70
2023/10/28 09:54:43;;;;;;;8.87;4.70;;;;;;;22.43;56.27;96401.13;4930409;29;20688;-77
2023/10/28 09:57:15;;;;;;;8.00;4.60;;;;;;;22.35;55.63;96366.81;4930283;29;20230;-71
2023/10/28 09:59:45;;;;;;;13.07;5.03;;;;;;;22.53;55.54;96386.00;4946183;29;20191;-74
2023/10/28 10:02:59;;;;;;;10.17;4.77;;;;;;;22.78;55.72;96392.22;4946334;29;20227;-72
2023/10/28 10:05:45;;;;;;;6.40;3.67;;;;;;;22.75;54.71;96375.88;4928904;28;20918;-74
2023/10/28 10:08:24;;;;;;;10.53;4.67;;;;;;;22.68;54.10;96370.41;4930260;29;20616;-71
2023/10/28 10:10:55;;;;;;;8.63;4.30;;;;;;;22.71;54.62;96372.72;4948043;28;20188;-72
2023/10/28 10:13:23;;;;;;;9.13;4.10;;;;;;;22.60;54.87;96365.94;4946063;29;20264;-76
2023/10/28 10:16:03;;;;;;;5.80;3.30;;;;;;;22.78;54.70;96379.00;4915800;29;20204;-73
2023/10/28 10:18:39;;;;;;;6.50;3.60;;;;;;;22.84;53.94;96380.19;4947025;28;20220;-74
2023/10/28 10:21:18;;;;;;;11.57;4.70;;;;;;;22.97;54.36;96362.91;4931247;29;20228;-74
2023/10/28 10:23:52;;;;;;;5.97;3.80;;;;;;;23.23;53.95;96365.38;4929563;29;20280;-70
2023/10/28 10:26:21;;;;;;;4.00;2.80;;;;;;;23.20;52.27;96355.16;4930168;29;20251;-71
2023/10/28 10:28:51;;;;;;;5.40;2.90;;;;;;;23.10;52.83;96346.56;4945673;29;20715;-70
2023/10/28 10:31:22;;;;;;;8.23;3.40;;;;;;;23.13;52.12;96344.41;4930035;29;20197;-68
2023/10/28 10:34:39;;;;;;;8.73;3.33;;;;;;;23.25;52.48;96368.69;4930916;29;20259;-70
2023/10/28 10:37:20;;;;;;;7.60;3.33;;;;;;;23.39;51.95;96365.41;4944300;28;20310;-75
2023/10/28 10:39:48;;;;;;;7.07;2.90;;;;;;;23.31;51.76;96345.06;4946830;28;20287;-71
2023/10/28 10:42:16;;;;;;;7.37;2.90;;;;;;;23.36;51.62;96352.53;4946173;29;20258;-72
2023/10/28 10:44:49;;;;;;;11.07;3.30;;;;;;;23.44;51.64;96350.72;4945788;29;20208;-73
2023/10/28 10:47:21;;;;;;;9.30;3.77;;;;;;;23.25;52.31;96340.44;4946222;29;20199;-70
2023/10/28 10:49:50;;;;;;;5.17;2.60;;;;;;;23.29;51.15;96341.78;4946056;29;20741;-73
2023/10/28 10:52:18;;;;;;;6.93;3.27;;;;;;;23.46;51.50;96363.78;4946805;28;20325;-70
2023/10/28 10:54:50;;;;;;;7.20;2.90;;;;;;;23.52;51.75;96357.81;4947052;28;20197;-78
2023/10/28 10:57:18;;;;;;;8.43;4.30;;;;;;;23.55;50.71;96341.66;4965686;28;20325;-79
2023/10/28 10:59:46;;;;;;;7.27;3.33;;;;;;;24.00;50.25;96356.94;4966864;28;20514;-71
2023/10/28 11:02:32;;;;;;;6.90;2.80;;;;;;;23.79;50.73;96346.88;4948808;28;20359;-71
2023/10/28 11:05:00;;;;;;;9.53;4.30;;;;;;;23.59;50.62;96305.13;4966564;28;20189;-72
2023/10/28 11:07:28;;;;;;;8.33;3.53;;;;;;;23.93;49.63;96351.47;4951067;28;20253;-75
2023/10/28 11:10:11;;;;;;;4.90;3.23;;;;;;;24.05;49.43;96354.66;4953672;28;20625;-73
2023/10/28 11:12:39;;;;;;;6.57;4.17;;;;;;;24.22;49.25;96354.41;4970306;28;20209;-74
2023/10/28 11:15:08;;;;;;;6.70;3.60;;;;;;;24.27;48.72;96350.44;4936150;28;20312;-71
2023/10/28 11:17:35;;;;;;;5.10;3.00;;;;;;;24.19;49.14;96341.50;4952823;28;20226;-71
2023/10/28 11:20:04;;;;;;;6.10;2.93;;;;;;;23.85;49.14;96327.69;4936316;28;20640;-73
2023/10/28 11:22:33;;;;;;;6.17;3.23;;;;;;;24.11;49.50;96351.31;4969671;28;20217;-76
2023/10/28 11:25:07;;;;;;;8.43;3.30;;;;;;;23.96;49.52;96322.06;4952260;28;20201;-74
2023/10/28 11:27:34;;;;;;;9.73;5.07;;;;;;;24.42;48.90;96346.88;4969096;28;20217;-75
2023/10/28 11:30:05;;;;;;;5.30;3.07;;;;;;;24.30;48.14;96307.75;4935906;28;20215;-72
2023/10/28 11:32:40;;;;;;;11.60;3.03;;;;;;;24.37;48.05;96311.34;4951521;28;20280;-73
2023/10/28 11:35:14;;;;;;;5.20;2.97;;;;;;;24.35;48.38;96300.09;4937539;28;20225;-72
2023/10/28 11:37:41;;;;;;;6.37;2.97;;;;;;;24.56;48.58;96338.22;4951820;28;20187;-73
2023/10/28 11:40:10;;;;;;;8.83;3.80;;;;;;;24.34;47.84;96317.00;4969507;28;20196;-74
2023/10/28 11:42:37;;;;;;;7.23;3.33;;;;;;;24.54;48.00;96313.75;4951627;28;20757;-70